sensor_id;sensor_type;location;lat;lon;timestamp;P1;durP1;ratioP1;P2;durP2;ratioP2
55312;SDS011;46892;45.668;11.756;2023-08-01T00:00:51;8.23;;;4.27;;
55312;SDS011;46892;45.668;11.756;2023-08-01T00:03:16;6.10;;;4.10;;
55312;SDS011;46892;45.668;11.756;2023-08-01T00:05:42;8.00;;;4.30;;
55312;SDS011;46892;45.668;11.756;2023-08-01T00:08:13;8.03;;;4.60;;
55312;SDS011;46892;45.668;11.756;2023-08-01T00:10:39;7.78;;;4.53;;
55312;SDS011;46892;45.668;11.756;2023-08-01T00:13:06;6.80;;;4.10;;
55312;SDS011;46892;45.668;11.756;2023-08-01T00:15:32;9.00;;;5.53;;
55312;SDS011;46892;45.668;11.756;2023-08-01T00:17:58;7.93;;;4.30;;
55312;SDS011;46892;45.668;11.756;2023-08-01T00:20:24;6.70;;;4.30;;
55312;SDS011;46892;45.668;11.756;2023-08-01T00:22:49;10.00;;;4.40;;
55312;SDS011;46892;45.668;11.756;2023-08-01T00:25:16;8.47;;;4.20;;
55312;SDS011;46892;45.668;11.756;2023-08-01T00:27:42;5.27;;;4.23;;
55312;SDS011;46892;45.668;11.756;2023-08-01T00:30:08;8.03;;;4.50;;
55312;SDS011;46892;45.668;11.756;2023-08-01T00:32:35;5.37;;;4.00;;
55312;SDS011;46892;45.668;11.756;2023-08-01T00:35:01;6.97;;;3.80;;
55312;SDS011;46892;45.668;11.756;2023-08-01T00:37:27;7.50;;;3.93;;
55312;SDS011;46892;45.668;11.756;2023-08-01T00:39:52;5.57;;;3.57;;
55312;SDS011;46892;45.668;11.756;2023-08-01T00:42:18;8.13;;;3.67;;
55312;SDS011;46892;45.668;11.756;2023-08-01T00:44:44;10.33;;;3.97;;
55312;SDS011;46892;45.668;11.756;2023-08-01T00:47:10;8.03;;;3.73;;
55312;SDS011;46892;45.668;11.756;2023-08-01T00:49:35;9.13;;;4.00;;
55312;SDS011;46892;45.668;11.756;2023-08-01T00:52:01;8.13;;;4.10;;
55312;SDS011;46892;45.668;11.756;2023-08-01T00:54:27;8.87;;;3.67;;
55312;SDS011;46892;45.668;11.756;2023-08-01T00:56:59;5.53;;;3.10;;
55312;SDS011;46892;45.668;11.756;2023-08-01T00:59:25;13.00;;;4.30;;
55312;SDS011;46892;45.668;11.756;2023-08-01T01:01:51;7.20;;;3.53;;
55312;SDS011;46892;45.668;11.756;2023-08-01T01:04:17;7.37;;;3.80;;
55312;SDS011;46892;45.668;11.756;2023-08-01T01:06:52;7.57;;;3.17;;
55312;SDS011;46892;45.668;11.756;2023-08-01T01:09:27;7.33;;;2.80;;
55312;SDS011;46892;45.668;11.756;2023-08-01T01:11:54;5.13;;;2.50;;
55312;SDS011;46892;45.668;11.756;2023-08-01T01:14:20;4.70;;;2.70;;
55312;SDS011;46892;45.668;11.756;2023-08-01T01:16:46;6.87;;;2.83;;
55312;SDS011;46892;45.668;11.756;2023-08-01T01:19:11;4.20;;;2.20;;
55312;SDS011;46892;45.668;11.756;2023-08-01T01:21:38;4.27;;;2.20;;
55312;SDS011;46892;45.668;11.756;2023-08-01T01:24:06;3.40;;;2.03;;
55312;SDS011;46892;45.668;11.756;2023-08-01T01:26:34;4.57;;;2.50;;
55312;SDS011;46892;45.668;11.756;2023-08-01T01:29:02;3.73;;;2.17;;
55312;SDS011;46892;45.668;11.756;2023-08-01T01:31:30;4.57;;;2.05;;
55312;SDS011;46892;45.668;11.756;2023-08-01T01:33:56;4.00;;;2.10;;
55312;SDS011;46892;45.668;11.756;2023-08-01T01:36:23;6.17;;;2.23;;
55312;SDS011;46892;45.668;11.756;2023-08-01T01:38:48;5.43;;;2.17;;
55312;SDS011;46892;45.668;11.756;2023-08-01T01:41:14;4.13;;;2.30;;
55312;SDS011;46892;45.668;11.756;2023-08-01T01:43:40;4.33;;;2.20;;
55312;SDS011;46892;45.668;11.756;2023-08-01T01:46:06;5.93;;;2.27;;
55312;SDS011;46892;45.668;11.756;2023-08-01T01:48:32;2.97;;;2.10;;
55312;SDS011;46892;45.668;11.756;2023-08-01T01:50:57;4.73;;;2.33;;
55312;SDS011;46892;45.668;11.756;2023-08-01T01:53:23;4.57;;;2.17;;
55312;SDS011;46892;45.668;11.756;2023-08-01T01:55:49;4.03;;;2.40;;
55312;SDS011;46892;45.668;11.756;2023-08-01T01:58:15;3.25;;;2.03;;
55312;SDS011;46892;45.668;11.756;2023-08-01T02:00:41;5.23;;;2.47;;
55312;SDS011;46892;45.668;11.756;2023-08-01T02:03:06;7.27;;;2.60;;
55312;SDS011;46892;45.668;11.756;2023-08-01T02:05:35;6.70;;;2.30;;
55312;SDS011;46892;45.668;11.756;2023-08-01T02:08:01;6.17;;;2.33;;
55312;SDS011;46892;45.668;11.756;2023-08-01T02:10:28;4.60;;;2.20;;
55312;SDS011;46892;45.668;11.756;2023-08-01T02:12:53;3.63;;;2.10;;
55312;SDS011;46892;45.668;11.756;2023-08-01T02:15:19;4.97;;;2.30;;
55312;SDS011;46892;45.668;11.756;2023-08-01T02:17:45;6.83;;;2.83;;
55312;SDS011;46892;45.668;11.756;2023-08-01T02:20:10;7.60;;;3.07;;
55312;SDS011;46892;45.668;11.756;2023-08-01T02:22:36;5.93;;;2.33;;
55312;SDS011;46892;45.668;11.756;2023-08-01T02:25:02;4.83;;;2.30;;
55312;SDS011;46892;45.668;11.756;2023-08-01T02:27:28;6.37;;;2.43;;
55312;SDS011;46892;45.668;11.756;2023-08-01T02:29:53;6.90;;;2.60;;
55312;SDS011;46892;45.668;11.756;2023-08-01T02:32:19;7.60;;;2.97;;
55312;SDS011;46892;45.668;11.756;2023-08-01T02:34:45;5.97;;;2.67;;
55312;SDS011;46892;45.668;11.756;2023-08-01T02:37:11;5.77;;;2.70;;
55312;SDS011;46892;45.668;11.756;2023-08-01T02:39:36;6.60;;;2.23;;
55312;SDS011;46892;45.668;11.756;2023-08-01T02:42:02;5.03;;;2.50;;
55312;SDS011;46892;45.668;11.756;2023-08-01T02:44:28;5.93;;;2.57;;
55312;SDS011;46892;45.668;11.756;2023-08-01T02:46:54;5.97;;;2.63;;
55312;SDS011;46892;45.668;11.756;2023-08-01T02:49:20;5.90;;;2.37;;
55312;SDS011;46892;45.668;11.756;2023-08-01T02:51:45;4.70;;;2.60;;
55312;SDS011;46892;45.668;11.756;2023-08-01T02:54:11;6.00;;;2.50;;
55312;SDS011;46892;45.668;11.756;2023-08-01T02:56:37;9.47;;;2.57;;
55312;SDS011;46892;45.668;11.756;2023-08-01T02:59:06;5.47;;;2.57;;
55312;SDS011;46892;45.668;11.756;2023-08-01T03:01:36;5.38;;;2.80;;
55312;SDS011;46892;45.668;11.756;2023-08-01T03:04:03;3.87;;;2.53;;
55312;SDS011;46892;45.668;11.756;2023-08-01T03:06:31;5.97;;;2.03;;
55312;SDS011;46892;45.668;11.756;2023-08-01T03:08:57;5.40;;;2.70;;
55312;SDS011;46892;45.668;11.756;2023-08-01T03:11:24;3.97;;;2.50;;
55312;SDS011;46892;45.668;11.756;2023-08-01T03:13:49;5.07;;;2.50;;
55312;SDS011;46892;45.668;11.756;2023-08-01T03:16:16;4.73;;;2.63;;
55312;SDS011;46892;45.668;11.756;2023-08-01T03:18:42;7.17;;;2.60;;
55312;SDS011;46892;45.668;11.756;2023-08-01T03:21:08;6.13;;;2.83;;
55312;SDS011;46892;45.668;11.756;2023-08-01T03:23:34;4.70;;;2.70;;
55312;SDS011;46892;45.668;11.756;2023-08-01T03:26:00;4.37;;;2.67;;
55312;SDS011;46892;45.668;11.756;2023-08-01T03:28:26;7.63;;;2.87;;
55312;SDS011;46892;45.668;11.756;2023-08-01T03:30:51;6.33;;;2.70;;
55312;SDS011;46892;45.668;11.756;2023-08-01T03:33:18;8.37;;;3.30;;
55312;SDS011;46892;45.668;11.756;2023-08-01T03:35:47;6.37;;;3.47;;
55312;SDS011;46892;45.668;11.756;2023-08-01T03:38:13;6.03;;;3.10;;
55312;SDS011;46892;45.668;11.756;2023-08-01T03:40:39;4.00;;;3.00;;
55312;SDS011;46892;45.668;11.756;2023-08-01T03:43:05;4.23;;;2.50;;
55312;SDS011;46892;45.668;11.756;2023-08-01T03:45:31;4.80;;;2.87;;
55312;SDS011;46892;45.668;11.756;2023-08-01T03:47:58;5.53;;;2.80;;
55312;SDS011;46892;45.668;11.756;2023-08-01T03:50:24;8.17;;;3.57;;
55312;SDS011;46892;45.668;11.756;2023-08-01T03:52:50;8.03;;;3.47;;
55312;SDS011;46892;45.668;11.756;2023-08-01T03:55:16;6.90;;;3.87;;
55312;SDS011;46892;45.668;11.756;2023-08-01T03:57:42;5.97;;;3.10;;
55312;SDS011;46892;45.668;11.756;2023-08-01T04:00:08;8.23;;;3.40;;
55312;SDS011;46892;45.668;11.756;2023-08-01T04:02:41;6.03;;;3.23;;
55312;SDS011;46892;45.668;11.756;2023-08-01T04:05:08;6.73;;;3.43;;
55312;SDS011;46892;45.668;11.756;2023-08-01T04:07:34;6.07;;;3.00;;
55312;SDS011;46892;45.668;11.756;2023-08-01T04:10:01;4.00;;;3.10;;
55312;SDS011;46892;45.668;11.756;2023-08-01T04:12:27;6.17;;;3.80;;
55312;SDS011;46892;45.668;11.756;2023-08-01T04:14:53;5.43;;;3.27;;
55312;SDS011;46892;45.668;11.756;2023-08-01T04:17:19;4.77;;;3.00;;
55312;SDS011;46892;45.668;11.756;2023-08-01T04:19:45;7.03;;;3.30;;
55312;SDS011;46892;45.668;11.756;2023-08-01T04:22:10;7.23;;;3.80;;
55312;SDS011;46892;45.668;11.756;2023-08-01T04:24:36;6.20;;;3.00;;
55312;SDS011;46892;45.668;11.756;2023-08-01T04:27:02;7.20;;;3.17;;
55312;SDS011;46892;45.668;11.756;2023-08-01T04:29:28;7.10;;;3.37;;
55312;SDS011;46892;45.668;11.756;2023-08-01T04:31:54;5.80;;;3.23;;
55312;SDS011;46892;45.668;11.756;2023-08-01T04:34:20;4.83;;;3.23;;
55312;SDS011;46892;45.668;11.756;2023-08-01T04:36:45;4.70;;;3.13;;
55312;SDS011;46892;45.668;11.756;2023-08-01T04:39:11;6.83;;;3.87;;
55312;SDS011;46892;45.668;11.756;2023-08-01T04:41:37;5.23;;;2.90;;
55312;SDS011;46892;45.668;11.756;2023-08-01T04:44:03;5.50;;;3.50;;
55312;SDS011;46892;45.668;11.756;2023-08-01T04:46:28;5.50;;;3.20;;
55312;SDS011;46892;45.668;11.756;2023-08-01T04:48:54;5.03;;;3.40;;
55312;SDS011;46892;45.668;11.756;2023-08-01T04:51:20;5.20;;;3.57;;
55312;SDS011;46892;45.668;11.756;2023-08-01T04:53:45;4.63;;;3.00;;
55312;SDS011;46892;45.668;11.756;2023-08-01T04:56:11;5.60;;;3.00;;
55312;SDS011;46892;45.668;11.756;2023-08-01T04:58:37;4.93;;;3.20;;
55312;SDS011;46892;45.668;11.756;2023-08-01T05:01:03;4.97;;;3.17;;
55312;SDS011;46892;45.668;11.756;2023-08-01T05:03:28;6.93;;;3.17;;
55312;SDS011;46892;45.668;11.756;2023-08-01T05:05:54;5.93;;;3.57;;
55312;SDS011;46892;45.668;11.756;2023-08-01T05:08:20;5.80;;;3.67;;
55312;SDS011;46892;45.668;11.756;2023-08-01T05:10:45;4.23;;;3.20;;
55312;SDS011;46892;45.668;11.756;2023-08-01T05:13:11;5.35;;;3.22;;
55312;SDS011;46892;45.668;11.756;2023-08-01T05:15:37;3.72;;;2.97;;
55312;SDS011;46892;45.668;11.756;2023-08-01T05:18:03;4.33;;;3.40;;
55312;SDS011;46892;45.668;11.756;2023-08-01T05:20:28;4.87;;;3.10;;
55312;SDS011;46892;45.668;11.756;2023-08-01T05:22:58;4.43;;;2.70;;
55312;SDS011;46892;45.668;11.756;2023-08-01T05:25:24;5.93;;;3.42;;
55312;SDS011;46892;45.668;11.756;2023-08-01T05:27:50;4.90;;;3.30;;
55312;SDS011;46892;45.668;11.756;2023-08-01T05:30:16;4.60;;;3.28;;
55312;SDS011;46892;45.668;11.756;2023-08-01T05:32:41;4.73;;;3.83;;
55312;SDS011;46892;45.668;11.756;2023-08-01T05:35:09;5.32;;;3.63;;
55312;SDS011;46892;45.668;11.756;2023-08-01T05:37:35;4.03;;;3.07;;
55312;SDS011;46892;45.668;11.756;2023-08-01T05:40:02;3.90;;;3.17;;
55312;SDS011;46892;45.668;11.756;2023-08-01T05:42:29;4.23;;;3.30;;
55312;SDS011;46892;45.668;11.756;2023-08-01T05:44:54;4.57;;;3.67;;
55312;SDS011;46892;45.668;11.756;2023-08-01T05:47:20;6.37;;;3.97;;
55312;SDS011;46892;45.668;11.756;2023-08-01T05:49:47;5.38;;;3.20;;
55312;SDS011;46892;45.668;11.756;2023-08-01T05:52:14;4.10;;;3.37;;
55312;SDS011;46892;45.668;11.756;2023-08-01T05:54:39;4.83;;;3.60;;
55312;SDS011;46892;45.668;11.756;2023-08-01T05:57:05;5.53;;;3.83;;
55312;SDS011;46892;45.668;11.756;2023-08-01T05:59:33;5.07;;;3.70;;
55312;SDS011;46892;45.668;11.756;2023-08-01T06:01:59;4.80;;;3.50;;
55312;SDS011;46892;45.668;11.756;2023-08-01T06:04:25;5.28;;;4.35;;
55312;SDS011;46892;45.668;11.756;2023-08-01T06:06:50;5.85;;;3.88;;
55312;SDS011;46892;45.668;11.756;2023-08-01T06:09:16;7.13;;;4.25;;
55312;SDS011;46892;45.668;11.756;2023-08-01T06:11:42;7.75;;;4.45;;
55312;SDS011;46892;45.668;11.756;2023-08-01T06:14:08;5.93;;;4.23;;
55312;SDS011;46892;45.668;11.756;2023-08-01T06:16:35;5.63;;;4.07;;
55312;SDS011;46892;45.668;11.756;2023-08-01T06:19:00;18.93;;;6.50;;
55312;SDS011;46892;45.668;11.756;2023-08-01T06:21:26;11.63;;;5.70;;
55312;SDS011;46892;45.668;11.756;2023-08-01T06:23:52;9.53;;;5.40;;
55312;SDS011;46892;45.668;11.756;2023-08-01T06:26:18;5.03;;;2.70;;
55312;SDS011;46892;45.668;11.756;2023-08-01T06:28:43;6.10;;;3.20;;
55312;SDS011;46892;45.668;11.756;2023-08-01T06:31:09;7.23;;;3.10;;
55312;SDS011;46892;45.668;11.756;2023-08-01T06:33:35;5.80;;;2.47;;
55312;SDS011;46892;45.668;11.756;2023-08-01T06:36:01;6.53;;;3.73;;
55312;SDS011;46892;45.668;11.756;2023-08-01T06:38:27;6.93;;;4.27;;
55312;SDS011;46892;45.668;11.756;2023-08-01T06:40:52;9.90;;;5.20;;
55312;SDS011;46892;45.668;11.756;2023-08-01T06:43:18;6.77;;;5.40;;
55312;SDS011;46892;45.668;11.756;2023-08-01T06:45:44;5.47;;;4.13;;
55312;SDS011;46892;45.668;11.756;2023-08-01T06:48:09;5.50;;;4.10;;
55312;SDS011;46892;45.668;11.756;2023-08-01T06:50:35;7.77;;;5.33;;
55312;SDS011;46892;45.668;11.756;2023-08-01T06:53:01;8.27;;;5.67;;
55312;SDS011;46892;45.668;11.756;2023-08-01T06:55:27;7.67;;;6.07;;
55312;SDS011;46892;45.668;11.756;2023-08-01T06:57:52;7.10;;;5.33;;
55312;SDS011;46892;45.668;11.756;2023-08-01T07:00:18;7.80;;;6.10;;
55312;SDS011;46892;45.668;11.756;2023-08-01T07:02:44;8.17;;;5.30;;
55312;SDS011;46892;45.668;11.756;2023-08-01T07:05:10;8.33;;;5.93;;
55312;SDS011;46892;45.668;11.756;2023-08-01T07:07:36;7.40;;;5.20;;
55312;SDS011;46892;45.668;11.756;2023-08-01T07:10:01;6.33;;;4.93;;
55312;SDS011;46892;45.668;11.756;2023-08-01T07:12:27;8.30;;;5.37;;
55312;SDS011;46892;45.668;11.756;2023-08-01T07:14:53;5.83;;;4.50;;
55312;SDS011;46892;45.668;11.756;2023-08-01T07:17:19;6.50;;;4.50;;
55312;SDS011;46892;45.668;11.756;2023-08-01T07:19:44;4.60;;;3.90;;
55312;SDS011;46892;45.668;11.756;2023-08-01T07:22:10;6.83;;;5.00;;
55312;SDS011;46892;45.668;11.756;2023-08-01T07:24:36;6.40;;;5.20;;
55312;SDS011;46892;45.668;11.756;2023-08-01T07:27:01;9.10;;;5.43;;
55312;SDS011;46892;45.668;11.756;2023-08-01T07:29:27;6.90;;;5.60;;
55312;SDS011;46892;45.668;11.756;2023-08-01T07:31:53;7.97;;;5.77;;
55312;SDS011;46892;45.668;11.756;2023-08-01T07:34:19;7.97;;;6.17;;
55312;SDS011;46892;45.668;11.756;2023-08-01T07:36:45;8.33;;;5.57;;
55312;SDS011;46892;45.668;11.756;2023-08-01T07:39:13;7.03;;;5.20;;
55312;SDS011;46892;45.668;11.756;2023-08-01T07:41:39;7.87;;;5.80;;
55312;SDS011;46892;45.668;11.756;2023-08-01T07:44:05;5.90;;;5.03;;
55312;SDS011;46892;45.668;11.756;2023-08-01T07:46:31;5.03;;;4.23;;
55312;SDS011;46892;45.668;11.756;2023-08-01T07:48:57;6.73;;;4.47;;
55312;SDS011;46892;45.668;11.756;2023-08-01T07:51:24;6.33;;;5.57;;
55312;SDS011;46892;45.668;11.756;2023-08-01T07:53:51;8.80;;;6.40;;
55312;SDS011;46892;45.668;11.756;2023-08-01T07:56:18;7.90;;;5.80;;
55312;SDS011;46892;45.668;11.756;2023-08-01T07:58:44;6.90;;;5.90;;
55312;SDS011;46892;45.668;11.756;2023-08-01T08:01:10;7.57;;;5.57;;
55312;SDS011;46892;45.668;11.756;2023-08-01T08:03:37;6.27;;;5.17;;
55312;SDS011;46892;45.668;11.756;2023-08-01T08:06:03;6.13;;;5.00;;
55312;SDS011;46892;45.668;11.756;2023-08-01T08:08:30;5.80;;;4.80;;
55312;SDS011;46892;45.668;11.756;2023-08-01T08:10:58;6.33;;;5.40;;
55312;SDS011;46892;45.668;11.756;2023-08-01T08:13:24;7.07;;;4.80;;
55312;SDS011;46892;45.668;11.756;2023-08-01T08:15:50;6.60;;;4.90;;
55312;SDS011;46892;45.668;11.756;2023-08-01T08:18:16;6.33;;;4.67;;
55312;SDS011;46892;45.668;11.756;2023-08-01T08:20:44;4.90;;;4.00;;
55312;SDS011;46892;45.668;11.756;2023-08-01T08:23:10;7.20;;;4.60;;
55312;SDS011;46892;45.668;11.756;2023-08-01T08:25:39;5.00;;;4.13;;
55312;SDS011;46892;45.668;11.756;2023-08-01T08:28:05;6.93;;;5.03;;
55312;SDS011;46892;45.668;11.756;2023-08-01T08:30:31;7.90;;;5.00;;
55312;SDS011;46892;45.668;11.756;2023-08-01T08:32:57;6.20;;;4.53;;
55312;SDS011;46892;45.668;11.756;2023-08-01T08:35:25;5.22;;;3.75;;
55312;SDS011;46892;45.668;11.756;2023-08-01T08:37:51;4.77;;;3.10;;
55312;SDS011;46892;45.668;11.756;2023-08-01T08:40:17;5.80;;;3.65;;
55312;SDS011;46892;45.668;11.756;2023-08-01T08:42:42;5.03;;;3.63;;
55312;SDS011;46892;45.668;11.756;2023-08-01T08:45:09;5.70;;;3.67;;
55312;SDS011;46892;45.668;11.756;2023-08-01T08:47:38;6.13;;;3.87;;
55312;SDS011;46892;45.668;11.756;2023-08-01T08:50:09;5.90;;;4.17;;
55312;SDS011;46892;45.668;11.756;2023-08-01T08:52:37;5.63;;;3.20;;
55312;SDS011;46892;45.668;11.756;2023-08-01T08:55:03;5.27;;;3.10;;
55312;SDS011;46892;45.668;11.756;2023-08-01T08:57:30;4.28;;;3.17;;
55312;SDS011;46892;45.668;11.756;2023-08-01T08:59:57;5.43;;;3.35;;
55312;SDS011;46892;45.668;11.756;2023-08-01T09:02:24;6.18;;;3.63;;
55312;SDS011;46892;45.668;11.756;2023-08-01T09:04:51;5.47;;;2.83;;
55312;SDS011;46892;45.668;11.756;2023-08-01T09:07:17;4.53;;;3.28;;
55312;SDS011;46892;45.668;11.756;2023-08-01T09:09:48;6.53;;;3.88;;
55312;SDS011;46892;45.668;11.756;2023-08-01T09:12:14;5.03;;;3.40;;
55312;SDS011;46892;45.668;11.756;2023-08-01T09:14:40;4.55;;;3.00;;
55312;SDS011;46892;45.668;11.756;2023-08-01T09:17:07;5.38;;;3.38;;
55312;SDS011;46892;45.668;11.756;2023-08-01T09:19:34;5.10;;;3.53;;
55312;SDS011;46892;45.668;11.756;2023-08-01T09:22:00;5.20;;;2.92;;
55312;SDS011;46892;45.668;11.756;2023-08-01T09:24:26;4.53;;;2.50;;
55312;SDS011;46892;45.668;11.756;2023-08-01T09:26:52;4.05;;;2.63;;
55312;SDS011;46892;45.668;11.756;2023-08-01T09:29:26;3.75;;;2.30;;
55312;SDS011;46892;45.668;11.756;2023-08-01T09:31:52;3.03;;;2.17;;
55312;SDS011;46892;45.668;11.756;2023-08-01T09:34:21;3.22;;;2.10;;
55312;SDS011;46892;45.668;11.756;2023-08-01T09:36:47;3.83;;;2.45;;
55312;SDS011;46892;45.668;11.756;2023-08-01T09:39:17;3.83;;;2.53;;
55312;SDS011;46892;45.668;11.756;2023-08-01T09:41:44;4.20;;;2.28;;
55312;SDS011;46892;45.668;11.756;2023-08-01T09:44:16;4.72;;;2.28;;
55312;SDS011;46892;45.668;11.756;2023-08-01T09:46:42;4.15;;;2.30;;
55312;SDS011;46892;45.668;11.756;2023-08-01T09:49:09;3.17;;;2.30;;
55312;SDS011;46892;45.668;11.756;2023-08-01T09:51:46;4.35;;;2.33;;
55312;SDS011;46892;45.668;11.756;2023-08-01T09:54:13;3.72;;;2.10;;
55312;SDS011;46892;45.668;11.756;2023-08-01T09:56:40;3.55;;;2.05;;
55312;SDS011;46892;45.668;11.756;2023-08-01T09:59:12;3.65;;;2.25;;
55312;SDS011;46892;45.668;11.756;2023-08-01T10:01:41;3.28;;;2.10;;
55312;SDS011;46892;45.668;11.756;2023-08-01T10:04:10;4.93;;;2.40;;
55312;SDS011;46892;45.668;11.756;2023-08-01T10:06:37;2.95;;;2.10;;
55312;SDS011;46892;45.668;11.756;2023-08-01T10:09:06;3.33;;;2.20;;
55312;SDS011;46892;45.668;11.756;2023-08-01T10:11:35;4.55;;;2.55;;
55312;SDS011;46892;45.668;11.756;2023-08-01T10:14:05;3.60;;;2.63;;
55312;SDS011;46892;45.668;11.756;2023-08-01T10:16:31;5.18;;;2.92;;
55312;SDS011;46892;45.668;11.756;2023-08-01T10:18:59;4.10;;;2.65;;
55312;SDS011;46892;45.668;11.756;2023-08-01T10:21:26;3.22;;;2.38;;
55312;SDS011;46892;45.668;11.756;2023-08-01T10:23:52;3.80;;;2.58;;
55312;SDS011;46892;45.668;11.756;2023-08-01T10:26:19;4.25;;;2.42;;
55312;SDS011;46892;45.668;11.756;2023-08-01T10:28:52;3.67;;;1.98;;
55312;SDS011;46892;45.668;11.756;2023-08-01T10:31:18;8.68;;;2.65;;
55312;SDS011;46892;45.668;11.756;2023-08-01T10:33:48;2.85;;;1.88;;
55312;SDS011;46892;45.668;11.756;2023-08-01T10:36:19;3.00;;;2.40;;
55312;SDS011;46892;45.668;11.756;2023-08-01T10:38:48;3.92;;;2.35;;
55312;SDS011;46892;45.668;11.756;2023-08-01T10:43:47;3.13;;;2.00;;
55312;SDS011;46892;45.668;11.756;2023-08-01T10:46:13;2.78;;;2.17;;
55312;SDS011;46892;45.668;11.756;2023-08-01T10:48:51;2.45;;;1.70;;
55312;SDS011;46892;45.668;11.756;2023-08-01T10:51:17;2.88;;;2.10;;
55312;SDS011;46892;45.668;11.756;2023-08-01T10:53:43;8.55;;;1.80;;
55312;SDS011;46892;45.668;11.756;2023-08-01T10:56:16;2.88;;;2.03;;
55312;SDS011;46892;45.668;11.756;2023-08-01T10:58:43;2.83;;;1.80;;
55312;SDS011;46892;45.668;11.756;2023-08-01T11:01:09;2.45;;;1.60;;
55312;SDS011;46892;45.668;11.756;2023-08-01T11:03:36;2.80;;;1.85;;
55312;SDS011;46892;45.668;11.756;2023-08-01T11:06:03;2.50;;;1.70;;
55312;SDS011;46892;45.668;11.756;2023-08-01T11:08:38;2.47;;;1.63;;
55312;SDS011;46892;45.668;11.756;2023-08-01T11:11:05;2.60;;;2.00;;
55312;SDS011;46892;45.668;11.756;2023-08-01T11:13:36;2.85;;;1.70;;
55312;SDS011;46892;45.668;11.756;2023-08-01T11:16:05;3.33;;;1.70;;
55312;SDS011;46892;45.668;11.756;2023-08-01T11:18:43;3.03;;;1.42;;
55312;SDS011;46892;45.668;11.756;2023-08-01T11:21:10;1.85;;;1.50;;
55312;SDS011;46892;45.668;11.756;2023-08-01T11:23:35;2.60;;;1.30;;
55312;SDS011;46892;45.668;11.756;2023-08-01T11:26:06;1.90;;;1.50;;
55312;SDS011;46892;45.668;11.756;2023-08-01T11:28:35;2.75;;;1.63;;
55312;SDS011;46892;45.668;11.756;2023-08-01T11:31:09;2.78;;;1.48;;
55312;SDS011;46892;45.668;11.756;2023-08-01T11:33:38;3.42;;;1.70;;
55312;SDS011;46892;45.668;11.756;2023-08-01T11:36:04;2.58;;;1.80;;
55312;SDS011;46892;45.668;11.756;2023-08-01T11:38:31;1.90;;;1.70;;
55312;SDS011;46892;45.668;11.756;2023-08-01T11:40:59;2.85;;;2.15;;
55312;SDS011;46892;45.668;11.756;2023-08-01T11:43:26;4.50;;;1.95;;
55312;SDS011;46892;45.668;11.756;2023-08-01T11:46:06;3.30;;;2.17;;
55312;SDS011;46892;45.668;11.756;2023-08-01T11:48:32;3.13;;;1.92;;
55312;SDS011;46892;45.668;11.756;2023-08-01T11:50:57;3.38;;;2.10;;
55312;SDS011;46892;45.668;11.756;2023-08-01T11:53:24;3.55;;;2.00;;
55312;SDS011;46892;45.668;11.756;2023-08-01T11:55:50;3.55;;;2.58;;
55312;SDS011;46892;45.668;11.756;2023-08-01T11:58:39;3.20;;;2.20;;
55312;SDS011;46892;45.668;11.756;2023-08-01T12:01:10;2.15;;;1.85;;
55312;SDS011;46892;45.668;11.756;2023-08-01T12:03:46;3.35;;;2.13;;
55312;SDS011;46892;45.668;11.756;2023-08-01T12:06:14;3.33;;;2.47;;
55312;SDS011;46892;45.668;11.756;2023-08-01T12:08:41;4.45;;;2.38;;
55312;SDS011;46892;45.668;11.756;2023-08-01T12:14:05;3.58;;;2.38;;
55312;SDS011;46892;45.668;11.756;2023-08-01T12:16:39;3.42;;;2.20;;
55312;SDS011;46892;45.668;11.756;2023-08-01T12:19:10;4.30;;;1.88;;
55312;SDS011;46892;45.668;11.756;2023-08-01T12:21:42;2.47;;;2.10;;
55312;SDS011;46892;45.668;11.756;2023-08-01T12:24:07;3.95;;;2.10;;
55312;SDS011;46892;45.668;11.756;2023-08-01T12:26:33;3.63;;;2.10;;
55312;SDS011;46892;45.668;11.756;2023-08-01T12:28:59;3.47;;;1.92;;
55312;SDS011;46892;45.668;11.756;2023-08-01T12:31:25;3.80;;;2.53;;
55312;SDS011;46892;45.668;11.756;2023-08-01T12:33:50;8.05;;;2.60;;
55312;SDS011;46892;45.668;11.756;2023-08-01T12:36:18;3.33;;;2.25;;
55312;SDS011;46892;45.668;11.756;2023-08-01T12:38:44;2.70;;;2.15;;
55312;SDS011;46892;45.668;11.756;2023-08-01T12:41:10;3.22;;;2.28;;
55312;SDS011;46892;45.668;11.756;2023-08-01T12:43:35;4.25;;;2.28;;
55312;SDS011;46892;45.668;11.756;2023-08-01T12:46:01;2.17;;;1.90;;
55312;SDS011;46892;45.668;11.756;2023-08-01T12:48:27;4.78;;;2.30;;
55312;SDS011;46892;45.668;11.756;2023-08-01T12:50:53;3.05;;;2.10;;
55312;SDS011;46892;45.668;11.756;2023-08-01T12:53:20;2.92;;;2.30;;
55312;SDS011;46892;45.668;11.756;2023-08-01T12:55:46;2.88;;;1.70;;
55312;SDS011;46892;45.668;11.756;2023-08-01T12:58:14;2.83;;;2.30;;
55312;SDS011;46892;45.668;11.756;2023-08-01T13:00:40;4.60;;;2.15;;
55312;SDS011;46892;45.668;11.756;2023-08-01T13:03:08;5.38;;;2.13;;
55312;SDS011;46892;45.668;11.756;2023-08-01T13:05:39;2.60;;;2.05;;
55312;SDS011;46892;45.668;11.756;2023-08-01T13:08:06;3.35;;;2.17;;
55312;SDS011;46892;45.668;11.756;2023-08-01T13:10:32;2.60;;;2.25;;
55312;SDS011;46892;45.668;11.756;2023-08-01T13:12:59;2.97;;;2.10;;
55312;SDS011;46892;45.668;11.756;2023-08-01T13:15:25;4.00;;;2.38;;
55312;SDS011;46892;45.668;11.756;2023-08-01T13:17:52;2.63;;;1.95;;
55312;SDS011;46892;45.668;11.756;2023-08-01T13:20:18;4.00;;;2.03;;
55312;SDS011;46892;45.668;11.756;2023-08-01T13:22:49;3.15;;;2.20;;
55312;SDS011;46892;45.668;11.756;2023-08-01T13:25:15;3.20;;;2.30;;
55312;SDS011;46892;45.668;11.756;2023-08-01T13:27:42;3.53;;;2.20;;
55312;SDS011;46892;45.668;11.756;2023-08-01T13:30:08;4.20;;;2.17;;
55312;SDS011;46892;45.668;11.756;2023-08-01T13:32:34;3.60;;;2.05;;
55312;SDS011;46892;45.668;11.756;2023-08-01T13:35:01;2.85;;;2.00;;
55312;SDS011;46892;45.668;11.756;2023-08-01T13:37:27;3.25;;;2.28;;
55312;SDS011;46892;45.668;11.756;2023-08-01T13:39:55;3.08;;;2.35;;
55312;SDS011;46892;45.668;11.756;2023-08-01T13:42:22;3.50;;;2.35;;
55312;SDS011;46892;45.668;11.756;2023-08-01T13:44:48;5.70;;;2.55;;
55312;SDS011;46892;45.668;11.756;2023-08-01T13:47:14;4.40;;;2.42;;
55312;SDS011;46892;45.668;11.756;2023-08-01T13:49:40;2.50;;;2.15;;
55312;SDS011;46892;45.668;11.756;2023-08-01T13:52:05;3.80;;;2.33;;
55312;SDS011;46892;45.668;11.756;2023-08-01T13:54:31;3.22;;;2.25;;
55312;SDS011;46892;45.668;11.756;2023-08-01T13:56:57;4.07;;;2.75;;
55312;SDS011;46892;45.668;11.756;2023-08-01T13:59:23;3.90;;;2.47;;
55312;SDS011;46892;45.668;11.756;2023-08-01T14:01:49;4.28;;;2.70;;
55312;SDS011;46892;45.668;11.756;2023-08-01T14:04:14;3.33;;;2.30;;
55312;SDS011;46892;45.668;11.756;2023-08-01T14:06:41;3.05;;;2.30;;
55312;SDS011;46892;45.668;11.756;2023-08-01T14:09:07;3.05;;;2.10;;
55312;SDS011;46892;45.668;11.756;2023-08-01T14:11:34;3.55;;;2.15;;
55312;SDS011;46892;45.668;11.756;2023-08-01T14:14:00;4.50;;;2.70;;
55312;SDS011;46892;45.668;11.756;2023-08-01T14:16:26;3.88;;;2.03;;
55312;SDS011;46892;45.668;11.756;2023-08-01T14:18:51;3.83;;;2.67;;
55312;SDS011;46892;45.668;11.756;2023-08-01T14:21:17;4.63;;;2.70;;
55312;SDS011;46892;45.668;11.756;2023-08-01T14:23:43;3.33;;;2.55;;
55312;SDS011;46892;45.668;11.756;2023-08-01T14:26:09;2.95;;;2.25;;
55312;SDS011;46892;45.668;11.756;2023-08-01T14:28:35;3.58;;;2.50;;
55312;SDS011;46892;45.668;11.756;2023-08-01T14:31:01;3.78;;;2.30;;
55312;SDS011;46892;45.668;11.756;2023-08-01T14:33:28;3.53;;;2.30;;
55312;SDS011;46892;45.668;11.756;2023-08-01T14:35:54;2.72;;;2.15;;